Turners, Missouri
Current Conditions -  °F | °C
As of 3:52 PM on Monday 24 Nov 2014 (Local Time) from KSGF Reporting Station
Few Clouds Few Clouds  
Wind Chill: 41°   Ceiling: Unl
Heat Index: 48°   Visibility: 10mi
Dew Point: 27°   Wind: 21mph
Humidity: 44%   Direction: 290°WNW
Pressure: 29.86"   Gusts: 28mph
Location:  37.18°N, 93.16°W
Report Text: KSGF 242152Z 29018G24KT 10SM FEW055 09/M03 A2986 RMK AO2 PK WND 26028/2121 SLP115 T00891028
Loading
Personal Weather Stations






























Interactive Weather Map New forecast layout! Learn more

10-Day Weather Forecast

Advertisements
Track Severe Weather on mobile